Terminal Aerodrome Forecast
Issued by NWS Kansas City/Pleasant Hill, MO

Home | Current Version | Previous Version | Text Only | Print | Product List | Glossary On
Versions: 1 2 3 4 5 6 7 8 9 10 11 12 13 14 15 16 17 18 19 20 21 22
109
FTUS43 KEAX 260325 AAA
TAFMCI
TAF AMD
KMCI 260325Z 2603/2624 17009KT P6SM SCT060 BKN150
     FM260600 18008KT P6SM VCTS BKN035CB
      TEMPO 2607/2610 2SM TSRA BR BKN015CB
     FM261200 18008KT P6SM OVC015
     FM261700 14010KT P6SM SCT020
     FM262000 15013G22KT P6SM VCTS BKN035CB=

USA.gov is the U.S. government's official web portal to all federal, state and local government web resources and services.